Terminal Aerodrome Forecast
Issued by NWS Buffalo, NY

Home | Current Version | Previous Version | Text Only | Print | Product List | Glossary On
Versions: 1 2 3 4 5 6 7 8 9 10 11 12 13 14 15 16 17 18 19 20 21 22 23 24 25 26 27 28 29 30
000
FTUS41 KBUF 020858 AAA
TAFROC
TAF AMD
KROC 020858Z 0209/0306 35005KT P6SM SCT025 BKN080
     FM021300 32005KT P6SM BKN040
     FM021700 35007KT P6SM SCT040
     FM022300 VRB03KT P6SM SKC=

USA.gov is the U.S. government's official web portal to all federal, state and local government web resources and services.